createdAt,value
2018-11-29T00:00:38.121Z,175.30
2018-11-29T00:03:08.505Z,167.73
2018-11-29T00:05:38.072Z,185.33
2018-11-29T00:08:07.676Z,203.43
2018-11-29T00:10:37.195Z,161.87
2018-11-29T00:13:06.907Z,191.67
2018-11-29T00:15:36.592Z,164.70
2018-11-29T00:18:06.168Z,150.00
2018-11-29T00:20:35.783Z,219.00
2018-11-29T00:23:05.330Z,150.13
2018-11-29T00:25:34.902Z,219.00
2018-11-29T00:28:04.518Z,235.00
2018-11-29T00:30:33.928Z,225.87
2018-11-29T00:33:03.358Z,229.97
2018-11-29T00:35:32.902Z,185.20
2018-11-29T00:38:02.419Z,199.83
2018-11-29T00:40:31.972Z,182.20
2018-11-29T00:43:01.476Z,174.33
2018-11-29T00:45:31.039Z,176.23
2018-11-29T00:48:00.639Z,220.23
2018-11-29T00:50:30.079Z,157.07
2018-11-29T00:52:59.535Z,244.83
2018-11-29T00:55:28.928Z,161.13
2018-11-29T00:57:58.556Z,190.77
2018-11-29T01:00:28.235Z,278.80
2018-11-29T01:02:57.821Z,169.73
2018-11-29T01:05:27.387Z,150.97
2018-11-29T01:07:56.903Z,150.53
2018-11-29T01:10:26.315Z,146.77
2018-11-29T01:12:55.599Z,150.13
2018-11-29T01:15:24.955Z,153.80
2018-11-29T01:17:54.602Z,142.93
2018-11-29T01:20:24.123Z,140.97
2018-11-29T01:22:53.648Z,132.90
2018-11-29T01:25:23.193Z,145.17
2018-11-29T01:27:52.826Z,123.13
2018-11-29T01:30:22.455Z,135.53
2018-11-29T01:32:51.892Z,125.10
2018-11-29T01:35:21.619Z,131.63
2018-11-29T01:37:51.264Z,142.07
2018-11-29T01:40:22.322Z,146.93
2018-11-29T01:42:55.826Z,143.37
2018-11-29T01:45:25.606Z,128.03
2018-11-29T01:47:55.110Z,125.33
2018-11-29T01:50:24.796Z,113.03
2018-11-29T01:52:54.206Z,126.17
2018-11-29T01:55:23.826Z,121.90
2018-11-29T01:57:53.265Z,104.30
2018-11-29T02:00:22.758Z,121.73
2018-11-29T02:02:53.711Z,118.93
2018-11-29T02:05:23.201Z,103.20
2018-11-29T02:07:52.821Z,121.73
2018-11-29T02:10:27.803Z,131.73
2018-11-29T02:12:57.447Z,103.83
2018-11-29T02:15:26.955Z,115.63
2018-11-29T02:17:56.368Z,123.77
2018-11-29T02:20:26.032Z,123.40
2018-11-29T02:22:55.486Z,131.77
2018-11-29T02:25:25.127Z,131.03
2018-11-29T02:27:54.645Z,122.47
2018-11-29T02:30:24.493Z,113.20
2018-11-29T02:32:54.010Z,236.30
2018-11-29T02:35:23.474Z,113.87
2018-11-29T02:37:53.451Z,114.87
2018-11-29T02:40:23.249Z,118.50
2018-11-29T02:42:53.172Z,156.70
2018-11-29T02:45:24.564Z,174.33
2018-11-29T02:47:54.156Z,146.47
2018-11-29T02:50:23.698Z,118.20
2018-11-29T02:52:53.016Z,183.37
2018-11-29T02:55:22.592Z,154.47
2018-11-29T02:57:52.023Z,146.20
2018-11-29T03:00:21.684Z,157.60
2018-11-29T03:02:51.230Z,116.90
2018-11-29T03:05:20.634Z,107.83
2018-11-29T03:07:50.144Z,149.93
2018-11-29T03:10:24.782Z,119.10
2018-11-29T03:12:54.252Z,104.13
2018-11-29T03:15:23.847Z,109.03
2018-11-29T03:17:53.232Z,102.87
2018-11-29T03:20:22.779Z,105.93
2018-11-29T03:22:52.284Z,95.70
2018-11-29T03:25:21.618Z,99.93
2018-11-29T03:27:51.264Z,114.70
2018-11-29T03:30:22.040Z,110.47
2018-11-29T03:32:51.531Z,96.07
2018-11-29T03:35:21.042Z,106.60
2018-11-29T03:37:50.631Z,106.03
2018-11-29T03:40:20.203Z,92.73
2018-11-29T03:42:49.636Z,83.47
2018-11-29T03:45:19.059Z,102.47
2018-11-29T03:47:48.562Z,90.03
2018-11-29T03:50:18.727Z,86.20
2018-11-29T03:52:48.274Z,87.03
2018-11-29T03:55:17.844Z,111.43
2018-11-29T03:57:47.466Z,90.93
2018-11-29T04:00:17.837Z,82.23
2018-11-29T04:02:48.188Z,124.47
2018-11-29T04:05:17.817Z,82.13
2018-11-29T04:07:47.347Z,75.67
2018-11-29T04:10:17.370Z,125.07
2018-11-29T04:12:46.988Z,79.10
2018-11-29T04:15:17.095Z,125.87
2018-11-29T04:17:46.785Z,79.17
2018-11-29T04:20:17.094Z,85.87
2018-11-29T04:22:46.530Z,77.30
2018-11-29T04:25:16.511Z,68.60
2018-11-29T04:27:46.252Z,77.60
2018-11-29T04:30:17.565Z,75.00
2018-11-29T04:32:47.265Z,60.10
2018-11-29T04:35:16.800Z,76.97
2018-11-29T04:37:46.362Z,57.07
2018-11-29T04:40:16.639Z,53.83
2018-11-29T04:42:46.420Z,68.13
2018-11-29T04:45:20.109Z,55.93
2018-11-29T04:47:49.721Z,57.60
2018-11-29T04:50:19.261Z,60.07
2018-11-29T04:52:48.658Z,69.63
2018-11-29T04:55:18.655Z,52.30
2018-11-29T04:57:48.071Z,65.27
2018-11-29T05:00:17.970Z,61.90
2018-11-29T05:02:47.238Z,242.13
2018-11-29T05:05:17.025Z,63.10
2018-11-29T05:07:46.503Z,91.83
2018-11-29T05:10:18.635Z,139.63
2018-11-29T05:12:48.359Z,75.50
2018-11-29T05:15:18.329Z,63.10
2018-11-29T05:17:47.825Z,59.13
2018-11-29T05:20:17.385Z,64.03
2018-11-29T05:22:46.908Z,88.03
2018-11-29T05:25:17.145Z,74.10
2018-11-29T05:27:45.983Z,88.53
2018-11-29T05:30:15.839Z,101.77
2018-11-29T05:32:45.247Z,209.87
2018-11-29T05:35:14.800Z,159.53
2018-11-29T05:37:45.294Z,161.47
2018-11-29T05:40:15.218Z,333.27
2018-11-29T05:42:44.825Z,120.70
2018-11-29T05:45:14.457Z,168.83
2018-11-29T05:47:44.117Z,270.40
2018-11-29T05:50:13.711Z,90.33
2018-11-29T05:52:43.242Z,111.53
2018-11-29T05:55:13.043Z,94.07
2018-11-29T05:57:42.445Z,90.83
2018-11-29T06:00:14.856Z,130.13
2018-11-29T06:02:44.806Z,110.10
2018-11-29T06:05:15.783Z,141.15
2018-11-29T06:07:45.170Z,95.90
2018-11-29T06:10:17.990Z,80.47
2018-11-29T06:12:47.861Z,73.40
2018-11-29T06:15:17.383Z,64.73
2018-11-29T06:17:46.886Z,231.53
2018-11-29T06:20:17.609Z,76.47
2018-11-29T06:22:48.419Z,86.50
2018-11-29T06:25:18.333Z,68.97
2018-11-29T06:27:50.600Z,72.17
2018-11-29T06:30:28.339Z,123.20
2018-11-29T06:33:00.802Z,89.57
2018-11-29T06:35:34.307Z,69.63
2018-11-29T06:38:05.312Z,170.57
2018-11-29T06:40:38.525Z,66.87
2018-11-29T06:43:09.994Z,60.97
2018-11-29T06:45:40.284Z,126.23
2018-11-29T06:48:13.917Z,208.43
2018-11-29T06:50:43.535Z,68.20
2018-11-29T06:53:18.148Z,74.47
2018-11-29T06:55:47.829Z,67.47
2018-11-29T06:58:17.427Z,68.43
2018-11-29T07:00:46.874Z,132.47
2018-11-29T07:03:16.383Z,282.50
2018-11-29T07:05:46.073Z,189.43
2018-11-29T07:08:15.532Z,176.17
2018-11-29T07:10:45.071Z,65.60
2018-11-29T07:13:14.441Z,69.07
2018-11-29T07:15:43.954Z,60.03
2018-11-29T07:18:13.451Z,68.93
2018-11-29T07:20:42.984Z,74.87
2018-11-29T07:23:12.402Z,75.93
2018-11-29T07:25:41.935Z,64.40
2018-11-29T07:28:11.559Z,57.67
2018-11-29T07:30:41.131Z,67.30
2018-11-29T07:33:10.660Z,53.40
2018-11-29T07:35:40.198Z,60.57
2018-11-29T07:38:09.699Z,56.30
2018-11-29T07:40:39.236Z,48.07
2018-11-29T07:43:09.113Z,49.37
2018-11-29T07:45:38.557Z,44.43
2018-11-29T07:48:08.048Z,57.67
2018-11-29T07:50:37.496Z,47.30
2018-11-29T07:53:07.215Z,55.10
2018-11-29T07:55:36.749Z,50.23
2018-11-29T07:58:06.611Z,51.53
2018-11-29T08:00:36.069Z,50.27
2018-11-29T08:03:05.597Z,67.53
2018-11-29T08:05:35.105Z,54.80
2018-11-29T08:08:04.761Z,46.00
2018-11-29T08:10:34.279Z,46.23
2018-11-29T08:13:03.707Z,47.73
2018-11-29T08:15:33.165Z,58.80
2018-11-29T08:18:02.785Z,57.33
2018-11-29T08:20:32.213Z,60.90
2018-11-29T08:23:01.726Z,47.60
2018-11-29T08:25:31.080Z,51.03
2018-11-29T08:28:00.682Z,54.73
2018-11-29T08:30:30.330Z,57.73
2018-11-29T08:32:59.860Z,59.10
2018-11-29T08:35:29.386Z,55.33
2018-11-29T08:37:58.917Z,46.50
2018-11-29T08:40:28.358Z,48.93
2018-11-29T08:42:57.762Z,44.03
2018-11-29T08:45:27.281Z,51.30
2018-11-29T08:47:56.541Z,47.90
2018-11-29T08:50:25.815Z,41.67
2018-11-29T08:52:55.076Z,40.33
2018-11-29T08:55:24.315Z,46.97
2018-11-29T08:57:53.636Z,46.17
2018-11-29T09:00:23.234Z,40.90
2018-11-29T09:02:52.515Z,45.97
2018-11-29T09:05:21.765Z,41.93
2018-11-29T09:07:51.454Z,41.30
2018-11-29T09:10:23.943Z,44.27
2018-11-29T09:12:53.467Z,42.07
2018-11-29T09:15:23.029Z,48.40
2018-11-29T09:17:52.572Z,42.13
2018-11-29T09:20:22.804Z,40.57
2018-11-29T09:22:52.416Z,44.13
2018-11-29T09:25:22.800Z,37.20
2018-11-29T09:27:52.319Z,37.43
2018-11-29T09:30:22.563Z,38.07
2018-11-29T09:32:53.776Z,38.10
2018-11-29T09:35:23.520Z,37.27
2018-11-29T09:37:53.175Z,38.83
2018-11-29T09:40:22.714Z,35.63
2018-11-29T09:42:52.225Z,36.13
2018-11-29T09:45:23.477Z,36.23
2018-11-29T09:47:54.114Z,39.50
2018-11-29T09:50:24.161Z,41.27
2018-11-29T09:52:53.731Z,39.10
2018-11-29T09:55:23.334Z,38.50
2018-11-29T09:57:53.240Z,38.43
2018-11-29T10:00:28.109Z,41.57
2018-11-29T10:03:03.078Z,35.77
2018-11-29T10:05:32.577Z,39.53
2018-11-29T10:08:02.116Z,34.33
2018-11-29T10:10:31.496Z,40.57
2018-11-29T10:13:00.980Z,33.47
2018-11-29T10:15:30.482Z,35.60
2018-11-29T10:17:59.936Z,31.13
2018-11-29T10:20:29.488Z,39.30
2018-11-29T10:22:59.001Z,29.43
2018-11-29T10:25:28.623Z,28.80
2018-11-29T10:28:06.497Z,33.03
2018-11-29T10:30:40.793Z,28.00
2018-11-29T10:33:10.378Z,33.53
2018-11-29T10:35:40.028Z,30.87
2018-11-29T10:38:09.532Z,29.43
2018-11-29T10:40:38.968Z,30.53
2018-11-29T10:43:08.472Z,31.03
2018-11-29T10:45:37.916Z,30.83
2018-11-29T10:48:09.543Z,30.70
2018-11-29T10:50:39.112Z,28.90
2018-11-29T10:53:09.591Z,32.63
2018-11-29T10:55:39.234Z,27.40
2018-11-29T10:58:08.963Z,31.87
2018-11-29T11:01:41.594Z,30.83
2018-11-29T11:04:11.158Z,32.37
2018-11-29T11:06:40.780Z,34.07
2018-11-29T11:09:11.442Z,33.87
2018-11-29T11:11:40.915Z,35.10
2018-11-29T11:14:10.332Z,35.53
2018-11-29T11:16:39.714Z,36.83
2018-11-29T11:19:09.323Z,56.50
2018-11-29T11:21:38.818Z,34.97
2018-11-29T11:24:08.352Z,33.17
2018-11-29T11:26:37.751Z,37.20
2018-11-29T11:29:07.550Z,32.70
2018-11-29T11:31:37.141Z,34.47
2018-11-29T11:34:07.047Z,39.77
2018-11-29T11:36:36.564Z,41.80
2018-11-29T11:39:08.100Z,40.03
2018-11-29T11:41:37.625Z,34.93
2018-11-29T11:44:07.159Z,36.07
2018-11-29T11:46:36.654Z,34.77
2018-11-29T11:49:06.210Z,33.20
2018-11-29T11:51:35.843Z,33.27
2018-11-29T11:54:05.593Z,34.17
2018-11-29T11:56:35.278Z,32.50
2018-11-29T11:59:04.852Z,32.47
2018-11-29T12:01:34.288Z,33.43
2018-11-29T12:04:03.656Z,33.77
2018-11-29T12:06:33.164Z,31.27
2018-11-29T12:09:02.663Z,35.93
2018-11-29T12:11:32.212Z,30.93
2018-11-29T12:14:01.730Z,28.70
2018-11-29T12:16:31.301Z,29.93
2018-11-29T12:19:02.389Z,29.37
2018-11-29T12:21:30.416Z,25.10
2018-11-29T12:24:01.244Z,24.20
2018-11-29T12:26:31.635Z,23.47
2018-11-29T12:29:02.295Z,27.33
2018-11-29T12:31:32.812Z,27.10
2018-11-29T12:34:03.809Z,26.67
2018-11-29T12:36:34.375Z,26.20
2018-11-29T12:39:05.312Z,24.43
2018-11-29T12:41:36.252Z,27.07
2018-11-29T12:44:07.191Z,23.70
2018-11-29T12:46:37.991Z,23.33
2018-11-29T12:49:08.669Z,26.40
2018-11-29T12:51:39.391Z,25.03
2018-11-29T12:54:10.251Z,25.93
2018-11-29T12:56:41.021Z,26.93
2018-11-29T12:59:11.656Z,22.77
2018-11-29T13:01:42.359Z,25.67
2018-11-29T13:04:13.867Z,24.90
2018-11-29T13:06:44.607Z,23.00
2018-11-29T13:09:15.476Z,30.43
2018-11-29T13:11:47.001Z,28.13
2018-11-29T13:14:18.030Z,30.53
2018-11-29T13:16:48.786Z,24.63
2018-11-29T13:19:19.612Z,27.47
2018-11-29T13:21:50.437Z,29.97
2018-11-29T13:24:21.206Z,26.93
2018-11-29T13:26:51.941Z,24.03
2018-11-29T13:29:22.656Z,23.67
2018-11-29T13:31:53.411Z,27.07
2018-11-29T13:34:24.070Z,23.20
2018-11-29T13:36:54.687Z,25.57
2018-11-29T13:39:25.411Z,21.77
2018-11-29T13:41:56.017Z,26.43
2018-11-29T13:44:27.238Z,26.00
2018-11-29T13:46:58.102Z,23.93
2018-11-29T13:49:28.865Z,25.37
2018-11-29T13:51:59.694Z,27.27
2018-11-29T13:54:29.706Z,40.30
2018-11-29T13:57:00.171Z,27.97
2018-11-29T13:59:29.839Z,27.33
2018-11-29T14:01:59.346Z,27.33
2018-11-29T14:04:28.873Z,40.00
2018-11-29T14:06:58.539Z,29.47
2018-11-29T14:09:27.974Z,22.53
2018-11-29T14:11:57.388Z,26.63
2018-11-29T14:14:26.971Z,24.40
2018-11-29T14:16:56.540Z,24.13
2018-11-29T14:19:26.011Z,27.20
2018-11-29T14:21:55.475Z,25.60
2018-11-29T14:24:24.950Z,23.57
2018-11-29T14:26:54.469Z,27.07
2018-11-29T14:29:24.018Z,23.67
2018-11-29T14:32:12.825Z,24.57
2018-11-29T14:34:42.336Z,30.47
2018-11-29T14:37:11.748Z,29.03
2018-11-29T14:39:41.223Z,24.40
2018-11-29T14:42:10.763Z,26.17
2018-11-29T14:44:40.280Z,28.43
2018-11-29T14:47:09.699Z,30.50
2018-11-29T14:49:39.175Z,30.47
2018-11-29T14:52:09.125Z,28.33
2018-11-29T14:54:38.520Z,42.57
2018-11-29T14:57:07.900Z,33.37
2018-11-29T14:59:37.278Z,39.03
2018-11-29T15:02:06.785Z,38.23
2018-11-29T15:04:36.285Z,27.63
2018-11-29T15:07:06.861Z,26.53
2018-11-29T15:09:36.347Z,24.60
2018-11-29T15:12:05.889Z,29.47
2018-11-29T15:14:35.529Z,25.67
2018-11-29T15:17:04.972Z,58.60
2018-11-29T15:19:34.456Z,59.83
2018-11-29T15:22:04.057Z,45.00
2018-11-29T15:24:33.548Z,32.43
2018-11-29T15:27:02.950Z,37.50
2018-11-29T15:29:32.504Z,31.83
2018-11-29T15:32:02.064Z,31.77
2018-11-29T15:34:31.532Z,36.57
2018-11-29T15:37:01.020Z,37.40
2018-11-29T15:39:30.627Z,23.90
2018-11-29T15:42:00.090Z,29.23
2018-11-29T15:44:29.604Z,25.73
2018-11-29T15:46:59.084Z,26.57
2018-11-29T15:49:28.555Z,27.23
2018-11-29T15:51:58.250Z,31.50
2018-11-29T15:54:27.819Z,28.33
2018-11-29T15:56:57.308Z,26.13
2018-11-29T15:59:26.856Z,28.57
2018-11-29T16:01:56.306Z,27.87
2018-11-29T16:04:25.821Z,26.90
2018-11-29T16:06:55.256Z,29.13
2018-11-29T16:09:24.667Z,28.00
2018-11-29T16:11:54.083Z,24.93
2018-11-29T16:14:23.683Z,27.67
2018-11-29T16:16:53.067Z,29.80
2018-11-29T16:19:22.577Z,26.37
2018-11-29T16:21:52.079Z,31.80
2018-11-29T16:24:21.567Z,35.20
2018-11-29T16:26:51.161Z,40.10
2018-11-29T16:29:20.606Z,33.77
2018-11-29T16:31:50.080Z,33.23
2018-11-29T16:34:19.657Z,28.03
2018-11-29T16:36:49.271Z,37.93
2018-11-29T16:39:18.727Z,24.60
2018-11-29T16:41:48.280Z,27.63
2018-11-29T16:44:17.787Z,21.77
2018-11-29T16:46:47.310Z,23.30
2018-11-29T16:49:16.831Z,23.90
2018-11-29T16:51:46.308Z,24.97
2018-11-29T16:54:15.824Z,26.77
2018-11-29T16:56:45.346Z,26.40
2018-11-29T16:59:14.755Z,33.50
2018-11-29T17:01:45.090Z,30.47
2018-11-29T17:04:14.584Z,29.63
2018-11-29T17:06:44.100Z,29.87
2018-11-29T17:09:13.670Z,41.93
2018-11-29T17:11:43.187Z,44.33
2018-11-29T17:14:12.696Z,43.43
2018-11-29T17:16:42.252Z,41.03
2018-11-29T17:19:11.891Z,37.23
2018-11-29T17:21:41.310Z,35.63
2018-11-29T17:24:11.721Z,40.77
2018-11-29T17:26:41.163Z,36.10
2018-11-29T17:29:10.826Z,29.33
2018-11-29T17:31:40.324Z,26.77
2018-11-29T17:34:10.052Z,34.37
2018-11-29T17:36:39.577Z,29.80
2018-11-29T17:39:10.484Z,39.27
2018-11-29T17:41:40.340Z,41.50
2018-11-29T17:44:10.086Z,42.67
2018-11-29T17:46:39.619Z,35.77
2018-11-29T17:49:09.254Z,39.47
2018-11-29T17:51:39.291Z,28.80
2018-11-29T17:54:10.095Z,38.77
2018-11-29T17:56:40.788Z,36.73
2018-11-29T17:59:11.411Z,49.07
2018-11-29T18:01:42.221Z,37.80
2018-11-29T18:04:12.358Z,36.47
2018-11-29T18:06:42.953Z,33.97
2018-11-29T18:09:14.027Z,34.70
2018-11-29T18:11:45.076Z,35.67
2018-11-29T18:14:15.904Z,36.97
2018-11-29T18:16:46.795Z,35.33
2018-11-29T18:19:18.088Z,51.33
2018-11-29T18:21:49.076Z,34.50
2018-11-29T18:24:20.315Z,31.47
2018-11-29T18:26:55.385Z,36.40
2018-11-29T18:29:26.219Z,36.90
2018-11-29T18:31:57.244Z,37.30
2018-11-29T18:34:28.515Z,42.50
2018-11-29T18:36:59.704Z,36.57
2018-11-29T18:39:30.387Z,43.17
2018-11-29T18:42:01.136Z,41.53
2018-11-29T18:44:31.875Z,37.13
2018-11-29T18:47:02.595Z,36.63
2018-11-29T18:49:33.027Z,36.10
2018-11-29T18:52:03.787Z,38.50
2018-11-29T18:54:34.755Z,37.87
2018-11-29T18:57:05.507Z,46.90
2018-11-29T18:59:36.063Z,50.27
2018-11-29T19:02:07.124Z,53.90
2018-11-29T19:04:38.376Z,41.17
2018-11-29T19:07:09.404Z,41.13
2018-11-29T19:09:41.288Z,41.00
2018-11-29T19:12:12.653Z,45.03
2018-11-29T19:14:44.281Z,42.23
2018-11-29T19:17:15.425Z,43.20
2018-11-29T19:19:46.083Z,55.10
2018-11-29T19:22:16.696Z,53.67
2018-11-29T19:24:47.405Z,49.17
2018-11-29T19:27:18.080Z,59.40
2018-11-29T19:29:49.840Z,47.10
2018-11-29T19:32:21.191Z,54.40
2018-11-29T19:34:52.246Z,48.53
2018-11-29T19:37:23.224Z,60.77
2018-11-29T19:39:54.156Z,55.33
2018-11-29T19:42:25.059Z,76.37
2018-11-29T19:44:55.794Z,95.67
2018-11-29T19:47:26.616Z,98.60
2018-11-29T19:49:57.351Z,167.67
2018-11-29T19:52:28.042Z,541.90
2018-11-29T19:54:58.695Z,361.47
2018-11-29T19:57:29.464Z,464.60
2018-11-29T20:00:00.037Z,504.70
2018-11-29T20:02:30.820Z,583.17
2018-11-29T20:05:01.619Z,642.80
2018-11-29T20:07:32.786Z,597.77
2018-11-29T20:10:03.798Z,481.43
2018-11-29T20:12:35.226Z,677.90
2018-11-29T20:15:07.647Z,336.03
2018-11-29T20:17:38.790Z,567.90
2018-11-29T20:20:11.148Z,661.90
2018-11-29T20:22:42.085Z,682.33
2018-11-29T20:25:17.818Z,323.73
2018-11-29T20:27:48.682Z,440.60
2018-11-29T20:30:24.308Z,242.90
2018-11-29T20:32:55.796Z,505.03
2018-11-29T20:35:26.526Z,302.07
2018-11-29T20:37:57.267Z,386.50
2018-11-29T20:40:29.377Z,420.03
2018-11-29T20:43:01.132Z,311.47
2018-11-29T20:46:06.772Z,309.77
2018-11-29T20:48:37.840Z,190.67
2018-11-29T20:51:08.907Z,426.57
2018-11-29T20:53:40.395Z,361.30
2018-11-29T20:56:13.559Z,629.90
2018-11-29T20:58:44.587Z,346.40
2018-11-29T21:01:15.598Z,602.43
2018-11-29T21:03:45.665Z,578.47
2018-11-29T21:06:15.931Z,575.50
2018-11-29T21:08:46.710Z,289.97
2018-11-29T21:11:16.717Z,499.20
2018-11-29T21:13:46.788Z,472.10
2018-11-29T21:16:17.896Z,579.37
2018-11-29T21:18:47.968Z,471.67
2018-11-29T21:21:19.103Z,531.47
2018-11-29T21:23:49.578Z,371.67
2018-11-29T21:26:19.644Z,388.07
2018-11-29T21:28:49.736Z,297.00
2018-11-29T21:31:19.767Z,258.57
2018-11-29T21:33:49.916Z,507.27
2018-11-29T21:36:19.919Z,281.17
2018-11-29T21:38:49.925Z,445.17
2018-11-29T21:41:20.097Z,557.17
2018-11-29T21:43:50.135Z,302.60
2018-11-29T21:46:20.133Z,596.70
2018-11-29T21:48:51.679Z,335.57
2018-11-29T21:51:21.702Z,387.60
2018-11-29T21:53:51.660Z,453.77
2018-11-29T21:56:21.487Z,507.50
2018-11-29T21:58:50.903Z,605.30
2018-11-29T22:01:20.223Z,566.03
2018-11-29T22:03:49.518Z,463.70
2018-11-29T22:06:18.775Z,493.93
2018-11-29T22:08:48.043Z,412.97
2018-11-29T22:11:17.412Z,399.07
2018-11-29T22:13:46.699Z,515.83
2018-11-29T22:16:15.929Z,371.13
2018-11-29T22:18:45.228Z,398.73
2018-11-29T22:21:14.511Z,287.63
2018-11-29T22:23:43.741Z,450.20
2018-11-29T22:26:15.175Z,369.30
2018-11-29T22:28:44.503Z,372.17
2018-11-29T22:31:13.753Z,161.87
2018-11-29T22:33:43.062Z,380.33
2018-11-29T22:36:12.372Z,234.10
2018-11-29T22:38:44.423Z,221.00
2018-11-29T22:41:11.004Z,178.27
2018-11-29T22:43:40.248Z,288.93
2018-11-29T22:46:09.516Z,183.27
2018-11-29T22:48:38.800Z,155.97
2018-11-29T22:51:08.111Z,253.67
2018-11-29T22:53:37.387Z,255.37
2018-11-29T22:56:06.731Z,87.13
2018-11-29T22:58:36.124Z,264.10
2018-11-29T23:01:09.710Z,217.77
2018-11-29T23:03:39.083Z,88.33
2018-11-29T23:06:08.420Z,141.00
2018-11-29T23:08:37.727Z,172.50
2018-11-29T23:11:07.282Z,290.27
2018-11-29T23:13:36.603Z,165.73
2018-11-29T23:16:06.636Z,306.37
2018-11-29T23:18:36.070Z,71.10
2018-11-29T23:21:05.431Z,65.07
2018-11-29T23:23:34.794Z,62.60
2018-11-29T23:26:04.448Z,62.93
2018-11-29T23:28:33.755Z,51.57
2018-11-29T23:31:03.060Z,55.77
2018-11-29T23:33:32.347Z,58.00
2018-11-29T23:36:01.659Z,59.10
2018-11-29T23:38:30.919Z,63.97
2018-11-29T23:41:00.169Z,59.27
2018-11-29T23:43:29.492Z,62.93
2018-11-29T23:45:58.772Z,63.50
2018-11-29T23:48:28.024Z,70.63
2018-11-29T23:50:57.347Z,212.40
2018-11-29T23:53:26.661Z,74.67
2018-11-29T23:55:55.959Z,301.47
2018-11-29T23:58:25.337Z,76.57
